JST265 YSCB-YMML
Flight info
| Callsign | JST265 |
|---|---|
| Flight time | 1h 47m |
| Altitude | 20000 |
| Route | TANTA3/35 TANTA Q29 ML DCT |
| Aircraft | A20N/M-SDE2E3FGHIRWXY/LB1 |
Departure
| Time | 2026-05-04 09:09 |
|---|---|
| Airport | Canberra Airport (YSCB) |
Arrival
| Time | 2026-05-04 10:56 |
|---|---|
| Airport | Melbourne Airport (YMML) |
| Time | Latitude | Longitude | Altitude | Speed | Heading |
|---|---|---|---|---|---|
| 2026-05-04 09:04 | -35.30846 | 149.19245 | 1876 ft | 0 kts | 186° |
| 2026-05-04 09:05 | -35.30891 | 149.19240 | 1882 ft | 19 kts | 185° |
| 2026-05-04 09:05 | -35.31051 | 149.19240 | 1879 ft | 26 kts | 180° |
| 2026-05-04 09:05 | -35.31232 | 149.19238 | 1876 ft | 10 kts | 180° |
| 2026-05-04 09:06 | -35.31311 | 149.19238 | 1874 ft | 14 kts | 179° |
| 2026-05-04 09:07 | -35.32006 | 149.19343 | 1881 ft | 11 kts | 100° |
| 2026-05-04 09:08 | -35.31985 | 149.19439 | 1880 ft | 13 kts | 30° |
| 2026-05-04 09:08 | -35.31840 | 149.19443 | 1877 ft | 50 kts | 0° |
| 2026-05-04 09:08 | -35.31208 | 149.19438 | 1877 ft | 126 kts | 1° |
| 2026-05-04 09:08 | -35.30154 | 149.19450 | 2083 ft | 169 kts | 359° |
| 2026-05-04 09:09 | -35.28867 | 149.19442 | 2573 ft | 200 kts | 359° |
| 2026-05-04 09:09 | -35.27393 | 149.19561 | 3269 ft | 227 kts | 2° |
| 2026-05-04 09:09 | -35.25744 | 149.19748 | 4030 ft | 249 kts | 0° |
| 2026-05-04 09:09 | -35.23963 | 149.19970 | 4925 ft | 263 kts | 1° |
| 2026-05-04 09:10 | -35.22155 | 149.20218 | 6169 ft | 258 kts | 360° |
| 2026-05-04 09:10 | -35.20398 | 149.20457 | 7542 ft | 251 kts | 359° |
| 2026-05-04 09:10 | -35.18667 | 149.20680 | 8678 ft | 249 kts | 359° |
| 2026-05-04 09:10 | -35.16919 | 149.20891 | 9468 ft | 253 kts | 359° |
| 2026-05-04 09:11 | -35.15206 | 149.21098 | 9811 ft | 250 kts | 359° |
| 2026-05-04 09:11 | -35.13472 | 149.21302 | 9957 ft | 245 kts | 359° |
| 2026-05-04 09:11 | -35.11835 | 149.21504 | 10010 ft | 228 kts | 359° |
| 2026-05-04 09:11 | -35.10314 | 149.21692 | 10016 ft | 212 kts | 358° |
| 2026-05-04 09:12 | -35.08905 | 149.21864 | 10019 ft | 195 kts | 358° |
| 2026-05-04 09:12 | -35.07579 | 149.22018 | 10019 ft | 196 kts | 357° |
| 2026-05-04 09:14 | -34.98052 | 149.23106 | 10226 ft | 197 kts | 350° |
| 2026-05-04 09:14 | -34.96720 | 149.22816 | 10849 ft | 194 kts | 341° |
| 2026-05-04 09:14 | -34.95452 | 149.22294 | 11638 ft | 192 kts | 331° |
| 2026-05-04 09:14 | -34.94374 | 149.21444 | 12312 ft | 195 kts | 318° |
| 2026-05-04 09:15 | -34.93491 | 149.20154 | 12982 ft | 202 kts | 303° |
| 2026-05-04 09:15 | -34.92968 | 149.18535 | 13681 ft | 210 kts | 287° |
| 2026-05-04 09:15 | -34.92881 | 149.16717 | 14333 ft | 222 kts | 271° |
| 2026-05-04 09:15 | -34.93299 | 149.14858 | 14989 ft | 236 kts | 254° |
| 2026-05-04 09:17 | -35.07196 | 149.03855 | 17788 ft | 376 kts | 217° |
| 2026-05-04 09:18 | -35.09518 | 149.02216 | 18036 ft | 392 kts | 217° |
| 2026-05-04 09:18 | -35.11834 | 149.00584 | 18558 ft | 399 kts | 217° |
| 2026-05-04 09:18 | -35.14253 | 148.98880 | 19128 ft | 402 kts | 217° |
| 2026-05-04 09:18 | -35.16616 | 148.97213 | 19687 ft | 405 kts | 217° |
| 2026-05-04 09:19 | -35.19068 | 148.95478 | 19965 ft | 409 kts | 217° |
| 2026-05-04 09:19 | -35.21662 | 148.93985 | 20054 ft | 416 kts | 207° |
| 2026-05-04 09:19 | -35.24470 | 148.92984 | 20068 ft | 425 kts | 198° |
| 2026-05-04 09:19 | -35.27410 | 148.92451 | 20067 ft | 428 kts | 193° |
| 2026-05-04 09:20 | -35.30366 | 148.91976 | 20074 ft | 428 kts | 193° |
| 2026-05-04 09:20 | -35.33327 | 148.91499 | 20080 ft | 432 kts | 193° |
| 2026-05-04 09:20 | -35.36294 | 148.91010 | 20070 ft | 428 kts | 193° |
| 2026-05-04 09:20 | -35.39240 | 148.90516 | 20062 ft | 428 kts | 194° |
| 2026-05-04 09:21 | -35.42126 | 148.90025 | 20078 ft | 428 kts | 193° |
| 2026-05-04 09:21 | -35.44970 | 148.89554 | 20077 ft | 428 kts | 193° |
| 2026-05-04 09:21 | -35.47934 | 148.89058 | 20071 ft | 429 kts | 193° |
| 2026-05-04 09:21 | -35.50885 | 148.88565 | 20087 ft | 428 kts | 193° |
| 2026-05-04 09:22 | -35.53847 | 148.88070 | 20073 ft | 431 kts | 193° |
| 2026-05-04 09:22 | -35.56815 | 148.87575 | 20067 ft | 429 kts | 193° |
| 2026-05-04 09:22 | -35.59774 | 148.87085 | 20066 ft | 429 kts | 193° |
| 2026-05-04 09:22 | -35.62738 | 148.86594 | 20063 ft | 430 kts | 193° |
| 2026-05-04 09:23 | -35.65635 | 148.86106 | 20065 ft | 428 kts | 195° |
| 2026-05-04 09:23 | -35.68392 | 148.85147 | 20065 ft | 416 kts | 211° |
| 2026-05-04 09:23 | -35.70808 | 148.83325 | 20076 ft | 400 kts | 228° |
| 2026-05-04 09:23 | -35.72612 | 148.80909 | 20071 ft | 389 kts | 242° |
| 2026-05-04 09:25 | -35.83037 | 148.62037 | 20064 ft | 386 kts | 243° |
| 2026-05-04 09:25 | -35.84556 | 148.59368 | 20065 ft | 386 kts | 243° |
| 2026-05-04 09:26 | -35.86080 | 148.56685 | 20067 ft | 387 kts | 243° |
| 2026-05-04 09:26 | -35.87625 | 148.53959 | 20074 ft | 388 kts | 243° |
| 2026-05-04 09:26 | -35.89167 | 148.51238 | 20066 ft | 387 kts | 243° |
| 2026-05-04 09:26 | -35.90706 | 148.48516 | 20065 ft | 386 kts | 243° |
| 2026-05-04 09:27 | -35.92234 | 148.45811 | 20081 ft | 379 kts | 244° |
| 2026-05-04 09:27 | -35.93712 | 148.43212 | 20065 ft | 361 kts | 244° |
| 2026-05-04 09:27 | -35.95115 | 148.40741 | 20062 ft | 343 kts | 245° |
| 2026-05-04 09:27 | -35.96443 | 148.38392 | 20060 ft | 324 kts | 246° |
| 2026-05-04 09:28 | -35.97699 | 148.36164 | 20079 ft | 308 kts | 246° |
| 2026-05-04 09:28 | -35.98866 | 148.34089 | 20070 ft | 293 kts | 247° |
| 2026-05-04 09:28 | -35.99970 | 148.32116 | 20069 ft | 280 kts | 247° |
| 2026-05-04 09:28 | -36.01056 | 148.30143 | 20066 ft | 288 kts | 247° |
| 2026-05-04 09:29 | -36.02180 | 148.28093 | 20071 ft | 288 kts | 247° |
| 2026-05-04 09:29 | -36.03314 | 148.26061 | 20068 ft | 287 kts | 246° |
| 2026-05-04 09:29 | -36.04445 | 148.24043 | 20075 ft | 288 kts | 246° |
| 2026-05-04 09:29 | -36.05563 | 148.22056 | 20072 ft | 287 kts | 246° |
| 2026-05-04 09:30 | -36.06672 | 148.20078 | 20108 ft | 286 kts | 247° |
| 2026-05-04 09:30 | -36.07787 | 148.18086 | 20076 ft | 282 kts | 247° |
| 2026-05-04 09:30 | -36.08866 | 148.16157 | 20072 ft | 281 kts | 247° |
| 2026-05-04 09:30 | -36.09945 | 148.14216 | 20077 ft | 283 kts | 247° |
| 2026-05-04 09:31 | -36.11035 | 148.12256 | 20072 ft | 283 kts | 247° |
| 2026-05-04 09:31 | -36.12120 | 148.10308 | 20072 ft | 283 kts | 247° |
| 2026-05-04 09:31 | -36.13222 | 148.08336 | 20073 ft | 283 kts | 247° |
| 2026-05-04 09:31 | -36.14342 | 148.06335 | 20072 ft | 283 kts | 247° |
| 2026-05-04 09:32 | -36.15466 | 148.04329 | 20070 ft | 283 kts | 247° |
| 2026-05-04 09:32 | -36.16566 | 148.02362 | 20070 ft | 283 kts | 247° |
| 2026-05-04 09:34 | -36.24304 | 147.88491 | 20070 ft | 280 kts | 247° |
| 2026-05-04 09:34 | -36.25411 | 147.86500 | 20068 ft | 281 kts | 247° |
| 2026-05-04 09:34 | -36.26486 | 147.84566 | 20069 ft | 280 kts | 247° |
| 2026-05-04 09:34 | -36.27592 | 147.82573 | 20066 ft | 281 kts | 247° |
| 2026-05-04 09:35 | -36.28701 | 147.80574 | 20065 ft | 281 kts | 247° |
| 2026-05-04 09:35 | -36.29780 | 147.78629 | 20067 ft | 280 kts | 247° |
| 2026-05-04 09:35 | -36.30888 | 147.76634 | 20067 ft | 281 kts | 247° |
| 2026-05-04 09:35 | -36.31995 | 147.74640 | 20063 ft | 281 kts | 247° |
| 2026-05-04 09:37 | -36.39616 | 147.60841 | 20051 ft | 279 kts | 247° |
| 2026-05-04 09:37 | -36.40661 | 147.58938 | 20069 ft | 279 kts | 247° |
| 2026-05-04 09:38 | -36.41760 | 147.56939 | 20057 ft | 281 kts | 247° |
| 2026-05-04 09:38 | -36.42860 | 147.54933 | 20049 ft | 281 kts | 247° |
| 2026-05-04 09:38 | -36.43960 | 147.52931 | 20045 ft | 280 kts | 247° |
| 2026-05-04 09:38 | -36.45061 | 147.50930 | 20047 ft | 281 kts | 247° |
| 2026-05-04 09:39 | -36.46159 | 147.48928 | 20047 ft | 280 kts | 247° |
| 2026-05-04 09:39 | -36.47254 | 147.46928 | 20051 ft | 280 kts | 247° |
| 2026-05-04 09:39 | -36.48311 | 147.44996 | 20050 ft | 280 kts | 247° |
| 2026-05-04 09:39 | -36.49407 | 147.42995 | 20050 ft | 280 kts | 247° |
| 2026-05-04 09:40 | -36.50478 | 147.41039 | 20046 ft | 279 kts | 247° |
| 2026-05-04 09:40 | -36.51573 | 147.39041 | 20045 ft | 280 kts | 247° |
| 2026-05-04 09:40 | -36.52668 | 147.37040 | 20051 ft | 279 kts | 246° |
| 2026-05-04 09:40 | -36.53741 | 147.35087 | 20065 ft | 277 kts | 246° |
| 2026-05-04 09:41 | -36.54815 | 147.33132 | 20040 ft | 269 kts | 247° |
| 2026-05-04 09:42 | -36.62020 | 147.19891 | 20041 ft | 265 kts | 247° |
| 2026-05-04 09:43 | -36.63056 | 147.17981 | 20045 ft | 270 kts | 248° |
| 2026-05-04 09:43 | -36.64098 | 147.16038 | 20043 ft | 280 kts | 247° |
| 2026-05-04 09:43 | -36.65158 | 147.14087 | 20039 ft | 278 kts | 246° |
| 2026-05-04 09:43 | -36.66245 | 147.12099 | 20040 ft | 277 kts | 246° |
| 2026-05-04 09:44 | -36.67331 | 147.10106 | 20054 ft | 278 kts | 246° |
| 2026-05-04 09:44 | -36.68049 | 147.08787 | 20040 ft | 277 kts | 246° |
| 2026-05-04 09:44 | -36.69081 | 147.06891 | 20040 ft | 276 kts | 246° |
| 2026-05-04 09:46 | -36.83350 | 147.02931 | 20031 ft | 322 kts | 192° |
| 2026-05-04 09:46 | -36.85553 | 147.02716 | 20036 ft | 321 kts | 192° |
| 2026-05-04 09:46 | -36.87742 | 147.02481 | 20028 ft | 319 kts | 192° |
| 2026-05-04 09:47 | -36.89905 | 147.02247 | 20030 ft | 320 kts | 192° |
| 2026-05-04 09:47 | -36.92092 | 147.02005 | 20031 ft | 319 kts | 192° |
| 2026-05-04 09:49 | -37.01058 | 146.92067 | 20016 ft | 259 kts | 269° |
| 2026-05-04 09:49 | -37.01318 | 146.89851 | 20025 ft | 258 kts | 269° |
| 2026-05-04 09:49 | -37.01585 | 146.87590 | 20018 ft | 266 kts | 268° |
| 2026-05-04 09:51 | -37.03172 | 146.74202 | 20004 ft | 261 kts | 268° |
| 2026-05-04 09:51 | -37.03431 | 146.72018 | 20008 ft | 262 kts | 268° |
| 2026-05-04 09:51 | -37.03693 | 146.69803 | 20022 ft | 260 kts | 268° |
| 2026-05-04 09:51 | -37.03960 | 146.67527 | 20027 ft | 261 kts | 268° |
| 2026-05-04 09:52 | -37.04222 | 146.65272 | 20024 ft | 262 kts | 268° |
| 2026-05-04 09:52 | -37.04484 | 146.63049 | 20022 ft | 261 kts | 268° |
| 2026-05-04 09:52 | -37.04750 | 146.60801 | 20014 ft | 260 kts | 268° |
| 2026-05-04 09:52 | -37.05014 | 146.58556 | 20020 ft | 261 kts | 268° |
| 2026-05-04 09:53 | -37.05276 | 146.56305 | 20009 ft | 262 kts | 268° |
| 2026-05-04 09:53 | -37.05540 | 146.54049 | 20008 ft | 261 kts | 268° |
| 2026-05-04 09:53 | -37.05799 | 146.51843 | 20018 ft | 261 kts | 268° |
| 2026-05-04 09:53 | -37.06055 | 146.49639 | 20017 ft | 261 kts | 268° |
| 2026-05-04 09:54 | -37.06315 | 146.47396 | 20017 ft | 260 kts | 268° |
| 2026-05-04 09:54 | -37.06576 | 146.45150 | 20012 ft | 261 kts | 268° |
| 2026-05-04 09:54 | -37.06837 | 146.42897 | 20012 ft | 262 kts | 268° |
| 2026-05-04 09:54 | -37.07096 | 146.40628 | 20018 ft | 266 kts | 267° |
| 2026-05-04 09:55 | -37.07352 | 146.38386 | 20005 ft | 265 kts | 267° |
| 2026-05-04 09:55 | -37.07651 | 146.36107 | 20007 ft | 267 kts | 262° |
| 2026-05-04 09:55 | -37.08280 | 146.33891 | 20003 ft | 275 kts | 250° |
| 2026-05-04 09:55 | -37.09282 | 146.31817 | 19845 ft | 280 kts | 243° |
| 2026-05-04 09:56 | -37.10357 | 146.29829 | 19605 ft | 275 kts | 242° |
| 2026-05-04 09:56 | -37.11412 | 146.27861 | 19345 ft | 269 kts | 242° |
| 2026-05-04 09:56 | -37.12452 | 146.25903 | 19114 ft | 271 kts | 243° |
| 2026-05-04 09:56 | -37.13488 | 146.23944 | 18962 ft | 266 kts | 243° |
| 2026-05-04 09:57 | -37.14498 | 146.22038 | 18598 ft | 261 kts | 243° |
| 2026-05-04 09:57 | -37.15497 | 146.20143 | 18049 ft | 260 kts | 242° |
| 2026-05-04 09:57 | -37.16490 | 146.18259 | 17495 ft | 258 kts | 242° |
| 2026-05-04 09:57 | -37.17474 | 146.16393 | 16978 ft | 255 kts | 242° |
| 2026-05-04 09:58 | -37.18425 | 146.14590 | 16479 ft | 252 kts | 243° |
| 2026-05-04 09:58 | -37.19392 | 146.12759 | 15901 ft | 252 kts | 243° |
| 2026-05-04 09:58 | -37.20350 | 146.10943 | 15446 ft | 248 kts | 242° |
| 2026-05-04 10:00 | -37.26697 | 145.98917 | 13143 ft | 233 kts | 240° |
| 2026-05-04 10:00 | -37.27628 | 145.97208 | 13000 ft | 238 kts | 243° |
| 2026-05-04 10:02 | -37.33901 | 145.85282 | 12988 ft | 240 kts | 231° |
| 2026-05-04 10:04 | -37.46422 | 145.88832 | 12974 ft | 284 kts | 164° |
| 2026-05-04 10:04 | -37.48303 | 145.89409 | 12970 ft | 274 kts | 186° |
| 2026-05-04 10:04 | -37.50131 | 145.89035 | 12973 ft | 261 kts | 212° |
| 2026-05-04 10:04 | -37.51536 | 145.87810 | 12975 ft | 245 kts | 235° |
| 2026-05-04 10:05 | -37.52409 | 145.86028 | 12968 ft | 234 kts | 257° |
| 2026-05-04 10:05 | -37.52669 | 145.84075 | 12957 ft | 225 kts | 276° |
| 2026-05-04 10:05 | -37.52378 | 145.82197 | 12962 ft | 216 kts | 292° |
| 2026-05-04 10:05 | -37.51696 | 145.80458 | 12944 ft | 228 kts | 297° |
| 2026-05-04 10:06 | -37.50972 | 145.78663 | 12831 ft | 228 kts | 296° |
| 2026-05-04 10:06 | -37.50261 | 145.76884 | 12600 ft | 228 kts | 296° |
| 2026-05-04 10:06 | -37.49550 | 145.75093 | 12345 ft | 228 kts | 296° |
| 2026-05-04 10:08 | -37.45605 | 145.64469 | 10804 ft | 222 kts | 275° |
| 2026-05-04 10:08 | -37.45863 | 145.62562 | 10579 ft | 232 kts | 251° |
| 2026-05-04 10:08 | -37.46738 | 145.60870 | 10353 ft | 239 kts | 240° |
| 2026-05-04 10:08 | -37.47727 | 145.59197 | 10104 ft | 237 kts | 240° |
| 2026-05-04 10:09 | -37.48681 | 145.57582 | 9903 ft | 233 kts | 240° |
| 2026-05-04 10:09 | -37.49649 | 145.55932 | 9773 ft | 235 kts | 240° |
| 2026-05-04 10:09 | -37.50618 | 145.54271 | 9644 ft | 235 kts | 240° |
| 2026-05-04 10:09 | -37.51582 | 145.52616 | 9511 ft | 234 kts | 240° |
| 2026-05-04 10:10 | -37.52531 | 145.50972 | 9374 ft | 229 kts | 239° |
| 2026-05-04 10:10 | -37.53471 | 145.49348 | 9239 ft | 230 kts | 239° |
| 2026-05-04 10:10 | -37.54417 | 145.47716 | 9116 ft | 231 kts | 239° |
| 2026-05-04 10:10 | -37.55357 | 145.46094 | 9040 ft | 229 kts | 240° |
| 2026-05-04 10:11 | -37.56283 | 145.44501 | 8951 ft | 229 kts | 240° |
| 2026-05-04 10:11 | -37.57218 | 145.42889 | 8835 ft | 228 kts | 240° |
| 2026-05-04 10:11 | -37.58153 | 145.41273 | 8681 ft | 228 kts | 240° |
| 2026-05-04 10:11 | -37.59089 | 145.39659 | 8567 ft | 227 kts | 240° |
| 2026-05-04 10:12 | -37.60010 | 145.38069 | 8446 ft | 226 kts | 240° |
| 2026-05-04 10:12 | -37.60939 | 145.36462 | 8305 ft | 227 kts | 240° |
| 2026-05-04 10:12 | -37.61866 | 145.34855 | 8180 ft | 226 kts | 240° |
| 2026-05-04 10:12 | -37.62789 | 145.33260 | 8047 ft | 225 kts | 240° |
| 2026-05-04 10:13 | -37.63714 | 145.31657 | 7917 ft | 226 kts | 241° |
| 2026-05-04 10:13 | -37.64631 | 145.30065 | 7793 ft | 223 kts | 241° |
| 2026-05-04 10:13 | -37.65546 | 145.28482 | 7661 ft | 222 kts | 241° |
| 2026-05-04 10:13 | -37.66453 | 145.26910 | 7536 ft | 221 kts | 241° |
| 2026-05-04 10:14 | -37.67352 | 145.25345 | 7411 ft | 217 kts | 240° |
| 2026-05-04 10:14 | -37.68239 | 145.23802 | 7302 ft | 217 kts | 240° |
| 2026-05-04 10:16 | -37.74343 | 145.13166 | 6213 ft | 215 kts | 240° |
| 2026-05-04 10:16 | -37.75207 | 145.11665 | 5925 ft | 214 kts | 240° |
| 2026-05-04 10:16 | -37.76080 | 145.10149 | 5622 ft | 213 kts | 240° |
| 2026-05-04 10:16 | -37.76949 | 145.08637 | 5323 ft | 212 kts | 240° |
| 2026-05-04 10:17 | -37.77813 | 145.07132 | 5031 ft | 211 kts | 241° |
| 2026-05-04 10:17 | -37.78673 | 145.05630 | 4725 ft | 211 kts | 241° |
| 2026-05-04 10:19 | -37.82457 | 144.94597 | 3140 ft | 190 kts | 261° |
| 2026-05-04 10:19 | -37.82679 | 144.92959 | 3020 ft | 187 kts | 265° |
| 2026-05-04 10:19 | -37.82879 | 144.91321 | 3021 ft | 190 kts | 265° |
| 2026-05-04 10:19 | -37.83082 | 144.89672 | 3021 ft | 189 kts | 266° |
| 2026-05-04 10:20 | -37.82935 | 144.88061 | 3026 ft | 187 kts | 294° |
| 2026-05-04 10:20 | -37.82078 | 144.86821 | 3020 ft | 194 kts | 324° |
| 2026-05-04 10:20 | -37.80749 | 144.86333 | 3026 ft | 205 kts | 344° |
| 2026-05-04 10:20 | -37.79333 | 144.86088 | 3026 ft | 206 kts | 344° |
| 2026-05-04 10:21 | -37.77922 | 144.85846 | 2935 ft | 204 kts | 344° |
| 2026-05-04 10:21 | -37.76537 | 144.85601 | 2741 ft | 191 kts | 344° |
| 2026-05-04 10:21 | -37.75262 | 144.85376 | 2303 ft | 182 kts | 344° |
| 2026-05-04 10:21 | -37.74036 | 144.85143 | 1821 ft | 174 kts | 344° |
| 2026-05-04 10:22 | -37.71694 | 144.84641 | 943 ft | 158 kts | 351° |
| 2026-05-04 10:22 | -37.70679 | 144.84437 | 797 ft | 135 kts | 352° |
| 2026-05-04 10:22 | -37.69809 | 144.84322 | 745 ft | 116 kts | 351° |
| 2026-05-04 10:23 | -37.68875 | 144.84142 | 1070 ft | 151 kts | 349° |
| 2026-05-04 10:23 | -37.67750 | 144.83921 | 1546 ft | 174 kts | 348° |
| 2026-05-04 10:25 | -37.58761 | 144.83472 | 5328 ft | 206 kts | 319° |
| 2026-05-04 10:25 | -37.57760 | 144.82219 | 4963 ft | 202 kts | 308° |
| 2026-05-04 10:25 | -37.56787 | 144.80953 | 4573 ft | 202 kts | 314° |
| 2026-05-04 10:25 | -37.55662 | 144.79896 | 4182 ft | 202 kts | 323° |
| 2026-05-04 10:26 | -37.54431 | 144.79065 | 4030 ft | 200 kts | 329° |
| 2026-05-04 10:26 | -37.53072 | 144.78530 | 4026 ft | 212 kts | 350° |
| 2026-05-04 10:26 | -37.51630 | 144.78387 | 4021 ft | 206 kts | 334° |
| 2026-05-04 10:26 | -37.50509 | 144.77380 | 4029 ft | 195 kts | 302° |
| 2026-05-04 10:27 | -37.50117 | 144.75782 | 4029 ft | 198 kts | 274° |
| 2026-05-04 10:27 | -37.50124 | 144.74048 | 4027 ft | 197 kts | 271° |
| 2026-05-04 10:27 | -37.50111 | 144.72309 | 4030 ft | 198 kts | 271° |
| 2026-05-04 10:27 | -37.50105 | 144.70589 | 4027 ft | 194 kts | 272° |
| 2026-05-04 10:28 | -37.50119 | 144.68875 | 4027 ft | 196 kts | 271° |
| 2026-05-04 10:28 | -37.50134 | 144.67151 | 4028 ft | 198 kts | 271° |
| 2026-05-04 10:28 | -37.50142 | 144.65419 | 4028 ft | 196 kts | 271° |
| 2026-05-04 10:28 | -37.50159 | 144.63707 | 4027 ft | 196 kts | 271° |
| 2026-05-04 10:29 | -37.50173 | 144.61989 | 4030 ft | 196 kts | 271° |
| 2026-05-04 10:29 | -37.50185 | 144.60280 | 4024 ft | 195 kts | 271° |
| 2026-05-04 10:29 | -37.50195 | 144.58558 | 4025 ft | 196 kts | 271° |
| 2026-05-04 10:29 | -37.50199 | 144.57418 | 4029 ft | 196 kts | 271° |
| 2026-05-04 10:30 | -37.50385 | 144.55718 | 4024 ft | 201 kts | 250° |
| 2026-05-04 10:30 | -37.51800 | 144.54095 | 4032 ft | 223 kts | 206° |
| 2026-05-04 10:30 | -37.53364 | 144.53981 | 4026 ft | 234 kts | 174° |
| 2026-05-04 10:30 | -37.54429 | 144.54312 | 4026 ft | 243 kts | 171° |
| 2026-05-04 10:31 | -37.56054 | 144.54858 | 4019 ft | 239 kts | 172° |
| 2026-05-04 10:31 | -37.57666 | 144.55406 | 4020 ft | 242 kts | 171° |
| 2026-05-04 10:32 | -37.67282 | 144.58718 | 4021 ft | 238 kts | 172° |
| 2026-05-04 10:33 | -37.68859 | 144.59302 | 4021 ft | 235 kts | 172° |
| 2026-05-04 10:33 | -37.70417 | 144.59868 | 4021 ft | 236 kts | 172° |
| 2026-05-04 10:33 | -37.72016 | 144.60457 | 4020 ft | 236 kts | 172° |
| 2026-05-04 10:33 | -37.73576 | 144.61029 | 4019 ft | 237 kts | 172° |
| 2026-05-04 10:34 | -37.75159 | 144.61606 | 4017 ft | 237 kts | 172° |
| 2026-05-04 10:34 | -37.76737 | 144.62183 | 4017 ft | 235 kts | 172° |
| 2026-05-04 10:34 | -37.78253 | 144.62741 | 4014 ft | 234 kts | 172° |
| 2026-05-04 10:34 | -37.79835 | 144.63319 | 4016 ft | 237 kts | 172° |
| 2026-05-04 10:35 | -37.81418 | 144.63893 | 4014 ft | 235 kts | 176° |
| 2026-05-04 10:35 | -37.82929 | 144.63830 | 4011 ft | 216 kts | 208° |
| 2026-05-04 10:35 | -37.84084 | 144.62793 | 4007 ft | 200 kts | 242° |
| 2026-05-04 10:35 | -37.84499 | 144.61184 | 4010 ft | 192 kts | 270° |
| 2026-05-04 10:36 | -37.84508 | 144.59536 | 4004 ft | 192 kts | 272° |
| 2026-05-04 10:36 | -37.84501 | 144.57871 | 4014 ft | 192 kts | 272° |
| 2026-05-04 10:36 | -37.84493 | 144.56186 | 4003 ft | 191 kts | 272° |
| 2026-05-04 10:36 | -37.84481 | 144.54502 | 4003 ft | 191 kts | 272° |
| 2026-05-04 10:37 | -37.84470 | 144.52823 | 4004 ft | 191 kts | 272° |
| 2026-05-04 10:37 | -37.84458 | 144.51142 | 4003 ft | 191 kts | 271° |
| 2026-05-04 10:37 | -37.84447 | 144.49459 | 4004 ft | 191 kts | 271° |
| 2026-05-04 10:37 | -37.84423 | 144.47790 | 3999 ft | 188 kts | 271° |
| 2026-05-04 10:39 | -37.84206 | 144.37847 | 3995 ft | 190 kts | 271° |
| 2026-05-04 10:39 | -37.84172 | 144.36176 | 3995 ft | 189 kts | 271° |
| 2026-05-04 10:39 | -37.84142 | 144.34524 | 4000 ft | 187 kts | 271° |
| 2026-05-04 10:40 | -37.84103 | 144.32875 | 4002 ft | 188 kts | 275° |
| 2026-05-04 10:40 | -37.83584 | 144.31372 | 4003 ft | 195 kts | 308° |
| 2026-05-04 10:40 | -37.82362 | 144.30526 | 4006 ft | 213 kts | 341° |
| 2026-05-04 10:40 | -37.80828 | 144.30720 | 3998 ft | 235 kts | 15° |
| 2026-05-04 10:41 | -37.79488 | 144.32005 | 3996 ft | 253 kts | 48° |
| 2026-05-04 10:41 | -37.78785 | 144.34064 | 4008 ft | 259 kts | 81° |
| 2026-05-04 10:41 | -37.78749 | 144.36349 | 4000 ft | 261 kts | 91° |
| 2026-05-04 10:41 | -37.78799 | 144.38636 | 3999 ft | 260 kts | 92° |
| 2026-05-04 10:42 | -37.78840 | 144.40941 | 4006 ft | 264 kts | 91° |
| 2026-05-04 10:42 | -37.78884 | 144.43222 | 3995 ft | 260 kts | 91° |
| 2026-05-04 10:42 | -37.78949 | 144.45503 | 4005 ft | 259 kts | 91° |
| 2026-05-04 10:42 | -37.79017 | 144.47779 | 4006 ft | 259 kts | 92° |
| 2026-05-04 10:43 | -37.79079 | 144.50057 | 4007 ft | 260 kts | 91° |
| 2026-05-04 10:44 | -37.81953 | 144.65463 | 4015 ft | 259 kts | 112° |
| 2026-05-04 10:45 | -37.82619 | 144.67573 | 4012 ft | 257 kts | 122° |
| 2026-05-04 10:45 | -37.83712 | 144.69275 | 4017 ft | 253 kts | 141° |
| 2026-05-04 10:45 | -37.84974 | 144.70820 | 4013 ft | 252 kts | 142° |
| 2026-05-04 10:45 | -37.86232 | 144.72351 | 4012 ft | 250 kts | 142° |
| 2026-05-04 10:46 | -37.87487 | 144.73874 | 4013 ft | 251 kts | 142° |
| 2026-05-04 10:46 | -37.88750 | 144.75401 | 4009 ft | 251 kts | 142° |
| 2026-05-04 10:46 | -37.90022 | 144.76918 | 4008 ft | 251 kts | 142° |
| 2026-05-04 10:46 | -37.91296 | 144.78434 | 4009 ft | 251 kts | 142° |
| 2026-05-04 10:47 | -37.92586 | 144.79947 | 4004 ft | 253 kts | 142° |
| 2026-05-04 10:47 | -37.93841 | 144.81409 | 4003 ft | 252 kts | 142° |
| 2026-05-04 10:47 | -37.95132 | 144.82931 | 4002 ft | 252 kts | 142° |
| 2026-05-04 10:47 | -37.96304 | 144.84585 | 3996 ft | 256 kts | 121° |
| 2026-05-04 10:49 | -37.89440 | 144.92296 | 4013 ft | 210 kts | 347° |
| 2026-05-04 10:49 | -37.88108 | 144.91983 | 4011 ft | 182 kts | 328° |
| 2026-05-04 10:50 | -37.86979 | 144.91258 | 4017 ft | 182 kts | 323° |
| 2026-05-04 10:51 | -37.79667 | 144.86431 | 2526 ft | 173 kts | 340° |
| 2026-05-04 10:52 | -37.78511 | 144.86148 | 2394 ft | 168 kts | 340° |
| 2026-05-04 10:52 | -37.77341 | 144.85856 | 2265 ft | 171 kts | 341° |
| 2026-05-04 10:52 | -37.76161 | 144.85635 | 2133 ft | 171 kts | 346° |
| 2026-05-04 10:54 | -37.69446 | 144.84259 | 586 ft | 133 kts | 350° |
| 2026-05-04 10:54 | -37.68558 | 144.84090 | 371 ft | 125 kts | 351° |
| 2026-05-04 10:56 | -37.66853 | 144.83909 | 383 ft | 1 kts | 16° |
| 2026-05-04 10:56 | -37.66831 | 144.83918 | 383 ft | 0 kts | 20° |
| 2026-05-04 10:56 | -37.66826 | 144.83920 | 383 ft | 3 kts | 20° |
| 2026-05-04 10:57 | -37.66820 | 144.83923 | 383 ft | 3 kts | 20° |
| 2026-05-04 10:57 | -37.66785 | 144.83941 | 383 ft | 8 kts | 26° |
| 2026-05-04 10:57 | -37.66737 | 144.83998 | 382 ft | 12 kts | 53° |
| 2026-05-04 10:57 | -37.66727 | 144.84121 | 378 ft | 18 kts | 113° |
| 2026-05-04 10:58 | -37.66854 | 144.84205 | 374 ft | 25 kts | 171° |
| 2026-05-04 10:58 | -37.67003 | 144.84232 | 371 ft | 0 kts | 172° |
| 2026-05-04 10:58 | -37.67004 | 144.84232 | 371 ft | 0 kts | 172° |
| 2026-05-04 11:01 | -37.67448 | 144.84621 | 355 ft | 14 kts | 81° |
| 2026-05-04 11:02 | -37.67444 | 144.84681 | 353 ft | 9 kts | 84° |
| 2026-05-04 11:02 | -37.67435 | 144.84772 | 352 ft | 10 kts | 110° |